Terminal Aerodrome Forecast
Issued by NWS Wilmington, NC

Current Version | Previous Version | Graphics & Text | Print | Product List | Glossary Off
Versions: 1 2 3 4 5 6 7 8 9 10 11 12 13 14 15 16 17 18 19 20 21 22 23 24 25 26

000
FTUS42 KILM 241916 AAA
TAFFLO
TAF AMD
KFLO 241916Z 2419/2518 34007KT P6SM -RA BKN018 OVC030
      TEMPO 2420/2423 SCT025 OVC060
     FM250100 11004KT P6SM VCSH OVC009
     FM250400 14005KT 4SM -RA BR OVC010
     FM250800 18007KT 4SM -RA BR OVC007 WS020/20040KT
     FM251100 20008KT 5SM -SHRA BR OVC010=

USA.gov is the U.S. government's official web portal to all federal, state and local government web resources and services.